Time;durP1;ratioP1;P1;durP2;ratioP2;P2;SDS_P1;SDS_P2;PMS_P1;PMS_P2;Temp;Humidity;BMP_temperature;BMP_pressure;BME280_temperature;BME280_humidity;BME280_pressure;Samples;Min_cycle;Max_cycle;Signal;HPM_P1;HPM_P2
2022/11/16 00:03:43;;;;;;;4.83;3.87;;;;;;;2.57;100.00;95621.91;10407902;28;20219;-76
2022/11/16 00:14:06;;;;;;;8.30;5.47;;;;;;;2.67;100.00;95596.09;10407834;28;20271;-75
2022/11/16 00:19:08;;;;;;;5.33;3.40;;;;;;;2.95;100.00;95596.22;10407754;28;20209;-76
2022/11/16 00:24:13;;;;;;;5.07;3.47;;;;;;;3.19;100.00;95595.81;10407768;28;20221;-76
2022/11/16 00:29:19;;;;;;;4.97;3.60;;;;;;;3.34;100.00;95589.22;10406826;28;20224;-75
2022/11/16 00:34:21;;;;;;;7.07;3.90;;;;;;;3.19;100.00;95588.03;10405842;28;20181;-75
2022/11/16 00:39:21;;;;;;;5.50;3.63;;;;;;;3.12;100.00;95580.00;10407430;28;20718;-75
2022/11/16 00:44:22;;;;;;;4.07;3.03;;;;;;;3.14;100.00;95575.50;10406164;28;20224;-75
2022/11/16 00:49:22;;;;;;;5.23;3.70;;;;;;;3.12;100.00;95571.44;10407592;28;20514;-75
2022/11/16 00:54:22;;;;;;;4.67;3.37;;;;;;;2.92;100.00;95568.03;10389559;28;20180;-75
2022/11/16 00:59:23;;;;;;;9.20;3.63;;;;;;;2.71;100.00;95563.84;10405788;28;20204;-75
2022/11/16 01:04:27;;;;;;;5.40;3.97;;;;;;;2.50;100.00;95558.81;10395005;28;20710;-75
2022/11/16 01:09:27;;;;;;;5.00;3.87;;;;;;;2.42;100.00;95564.66;10413548;28;20185;-75
2022/11/16 01:14:27;;;;;;;7.07;4.00;;;;;;;2.28;100.00;95544.34;10412982;28;20653;-75
2022/11/16 01:19:28;;;;;;;4.13;3.37;;;;;;;2.43;100.00;95540.41;10396421;28;20581;-75
2022/11/16 01:24:28;;;;;;;2.43;1.93;;;;;;;2.87;100.00;95528.84;10413300;28;20217;-75
2022/11/16 01:29:29;;;;;;;3.87;3.37;;;;;;;2.68;100.00;95530.50;10412111;28;20224;-75
2022/11/16 01:34:32;;;;;;;4.50;3.13;;;;;;;2.92;100.00;95524.88;10412296;28;20207;-75
2022/11/16 01:39:39;;;;;;;3.10;2.77;;;;;;;3.06;100.00;95518.44;10412078;28;20205;-75
2022/11/16 01:44:41;;;;;;;5.60;2.70;;;;;;;3.12;100.00;95515.31;10395743;28;20274;-75
2022/11/16 01:49:50;;;;;;;2.73;2.50;;;;;;;3.18;100.00;95519.91;10412315;28;20200;-75
2022/11/16 01:54:53;;;;;;;3.40;2.60;;;;;;;3.16;100.00;95514.06;10395313;28;20227;-75
2022/11/16 01:59:57;;;;;;;2.97;2.43;;;;;;;3.15;100.00;95496.09;10394128;28;20196;-74
2022/11/16 02:04:59;;;;;;;3.60;2.30;;;;;;;3.14;100.00;95500.47;10393526;28;20645;-76
2022/11/16 02:10:33;;;;;;;2.60;2.40;;;;;;;2.95;100.00;95492.75;10395920;28;20184;-75
2022/11/16 02:15:50;;;;;;;2.33;2.13;;;;;;;2.88;100.00;95482.16;10409419;28;20596;-75
2022/11/16 02:21:32;;;;;;;2.83;2.30;;;;;;;2.84;100.00;95468.66;10394248;28;20216;-75
2022/11/16 02:26:59;;;;;;;2.50;2.30;;;;;;;2.92;100.00;95457.63;10378766;28;20240;-75
2022/11/16 02:32:08;;;;;;;3.03;2.60;;;;;;;2.89;100.00;95452.72;10410390;28;20237;-75
2022/11/16 02:37:10;;;;;;;3.43;2.73;;;;;;;2.87;100.00;95451.25;10410464;28;20734;-75
2022/11/16 02:42:16;;;;;;;3.40;2.73;;;;;;;2.84;100.00;95442.00;10393290;28;20196;-75
2022/11/16 02:47:24;;;;;;;2.63;2.33;;;;;;;2.88;100.00;95439.94;10393074;28;20315;-75
2022/11/16 02:52:26;;;;;;;3.07;2.37;;;;;;;2.92;100.00;95443.88;10393374;28;20617;-75
2022/11/16 02:57:40;;;;;;;3.83;2.47;;;;;;;2.77;100.00;95422.81;10410170;28;20657;-75
2022/11/16 03:03:00;;;;;;;5.83;2.40;;;;;;;2.65;100.00;95425.56;10409376;28;20231;-75
2022/11/16 03:08:30;;;;;;;2.83;2.43;;;;;;;2.56;100.00;95421.25;10408672;28;20189;-75
2022/11/16 03:13:34;;;;;;;3.00;2.70;;;;;;;2.14;100.00;95429.28;10409055;28;20201;-75
2022/11/16 03:18:36;;;;;;;5.37;2.93;;;;;;;1.98;100.00;95429.84;10392248;28;20555;-75
2022/11/16 03:23:37;;;;;;;3.30;3.00;;;;;;;2.03;100.00;95427.66;10407689;28;20208;-75
2022/11/16 03:28:59;;;;;;;4.47;2.93;;;;;;;2.16;100.00;95427.41;10391493;28;20232;-75
2022/11/16 03:34:04;;;;;;;3.23;2.93;;;;;;;2.29;100.00;95427.13;10407598;28;20707;-75
2022/11/16 03:39:20;;;;;;;3.40;2.83;;;;;;;2.55;100.00;95421.38;10407780;28;20212;-75
2022/11/16 03:44:21;;;;;;;5.37;3.20;;;;;;;2.44;100.00;95414.59;10411310;28;20216;-75
2022/11/16 03:49:22;;;;;;;4.97;4.17;;;;;;;2.18;100.00;95422.09;10416236;28;20287;-75
2022/11/16 03:54:25;;;;;;;5.63;4.17;;;;;;;1.80;100.00;95415.97;10407651;28;20181;-75
2022/11/16 03:59:26;;;;;;;7.87;3.60;;;;;;;1.55;100.00;95415.53;10407320;28;20188;-75
2022/11/16 04:25:49;;;;;;;7.40;4.50;;;;;;;1.38;100.00;95394.56;10401404;28;20672;-75
2022/11/16 04:47:05;;;;;;;6.00;4.43;;;;;;;1.24;100.00;95382.88;10407086;28;20212;-75
2022/11/16 04:52:07;;;;;;;6.00;4.60;;;;;;;1.08;100.00;95392.84;10407117;28;20208;-75
2022/11/16 04:57:08;;;;;;;5.93;4.63;;;;;;;1.09;100.00;95403.97;10406188;28;20254;-75
2022/11/16 05:02:09;;;;;;;7.13;5.10;;;;;;;1.03;100.00;95408.72;10409432;28;20271;-75
2022/11/16 05:07:25;;;;;;;6.63;4.53;;;;;;;1.03;100.00;95411.28;10413266;28;20239;-75
2022/11/16 05:12:31;;;;;;;5.73;4.57;;;;;;;1.15;100.00;95426.66;10413876;28;20216;-75
2022/11/16 05:17:34;;;;;;;6.07;5.07;;;;;;;1.18;100.00;95431.56;10413199;28;20189;-75
2022/11/16 05:22:37;;;;;;;5.07;4.47;;;;;;;1.18;100.00;95431.56;10402702;28;20658;-75
2022/11/16 05:27:37;;;;;;;8.33;4.90;;;;;;;1.11;100.00;95413.22;10372296;28;20197;-75
2022/11/16 05:32:39;;;;;;;8.53;4.70;;;;;;;1.02;100.00;95422.53;10369968;28;20216;-75
2022/11/16 05:37:41;;;;;;;8.03;5.53;;;;;;;1.10;100.00;95436.56;10371496;28;20614;-75
2022/11/16 05:42:42;;;;;;;7.03;4.67;;;;;;;1.22;100.00;95435.53;10371646;28;20208;-75
2022/11/16 05:47:43;;;;;;;5.50;4.37;;;;;;;1.22;100.00;95433.75;10370311;28;20189;-75
2022/11/16 05:52:43;;;;;;;9.07;5.03;;;;;;;1.21;100.00;95449.34;10371461;28;20195;-76
2022/11/16 05:57:45;;;;;;;6.10;4.53;;;;;;;1.38;100.00;95469.41;10371025;28;20247;-76
2022/11/16 06:02:45;;;;;;;6.00;4.13;;;;;;;1.60;100.00;95457.22;10370017;28;20185;-75
2022/11/16 06:07:54;;;;;;;8.90;4.47;;;;;;;1.41;100.00;95455.44;10355253;28;20296;-75
2022/11/16 06:12:55;;;;;;;11.57;6.37;;;;;;;1.27;100.00;95458.34;10370682;28;20264;-75
2022/11/16 06:17:56;;;;;;;8.97;6.90;;;;;;;1.37;100.00;95465.19;10369744;28;20252;-75
2022/11/16 06:22:57;;;;;;;7.63;5.57;;;;;;;1.51;100.00;95471.75;10370252;28;20223;-75
2022/11/16 06:27:58;;;;;;;42.20;18.77;;;;;;;1.66;100.00;95479.94;10369496;28;20233;-75
2022/11/16 06:32:59;;;;;;;30.03;13.10;;;;;;;1.72;100.00;95458.75;10369530;28;20646;-75
2022/11/16 06:37:59;;;;;;;12.03;6.87;;;;;;;1.73;100.00;95441.50;10369509;28;20207;-75
2022/11/16 06:43:00;;;;;;;14.53;8.00;;;;;;;1.88;100.00;95444.50;10369191;28;20267;-76
2022/11/16 06:48:00;;;;;;;15.50;8.23;;;;;;;1.82;100.00;95435.53;10370063;28;20711;-75
2022/11/16 06:53:01;;;;;;;25.07;12.47;;;;;;;1.95;100.00;95443.03;10370481;28;20323;-76
2022/11/16 06:58:03;;;;;;;20.80;10.10;;;;;;;1.87;100.00;95430.78;10368711;28;20189;-75
2022/11/16 07:03:04;;;;;;;23.73;11.60;;;;;;;2.02;100.00;95433.81;10368058;28;20355;-76
2022/11/16 07:08:04;;;;;;;14.43;9.23;;;;;;;2.27;100.00;95436.78;10351949;28;20320;-75
2022/11/16 07:13:05;;;;;;;16.43;8.67;;;;;;;2.49;100.00;95427.91;10368059;28;20563;-75
2022/11/16 07:18:07;;;;;;;15.00;8.97;;;;;;;2.42;100.00;95442.34;10367760;28;20197;-76
2022/11/16 07:23:09;;;;;;;12.37;7.90;;;;;;;2.47;100.00;95443.56;10367610;28;20213;-76
2022/11/16 07:28:10;;;;;;;16.07;9.23;;;;;;;2.71;100.00;95442.31;10367035;28;20233;-76
2022/11/16 07:33:10;;;;;;;16.93;9.27;;;;;;;3.10;100.00;95425.88;10367465;28;20287;-76
2022/11/16 07:38:34;;;;;;;83.77;30.70;;;;;;;2.52;100.00;95427.63;10337885;28;20221;-75
2022/11/16 07:43:35;;;;;;;28.47;13.90;;;;;;;2.69;100.00;95428.69;10349963;28;20232;-76
2022/11/16 07:48:44;;;;;;;29.53;15.27;;;;;;;3.20;100.00;95421.44;10378537;28;20216;-75
2022/11/16 07:53:53;;;;;;;18.87;11.07;;;;;;;3.49;100.00;95421.31;10364691;28;20193;-76
2022/11/16 07:58:53;;;;;;;18.23;10.50;;;;;;;3.75;100.00;95418.03;10386307;28;20189;-75
2022/11/16 08:03:54;;;;;;;22.13;12.03;;;;;;;4.06;100.00;95418.50;10366372;28;20581;-76
2022/11/16 08:08:55;;;;;;;17.83;10.43;;;;;;;4.02;100.00;95401.59;10366184;28;20661;-73
2022/11/16 08:13:56;;;;;;;13.80;9.40;;;;;;;3.88;100.00;95405.53;10349485;28;20276;-76
2022/11/16 08:18:59;;;;;;;14.17;8.97;;;;;;;4.45;100.00;95396.59;10365864;28;20193;-75
2022/11/16 08:23:59;;;;;;;12.93;7.93;;;;;;;4.69;100.00;95392.56;10364282;28;20263;-75
2022/11/16 08:29:01;;;;;;;11.97;8.53;;;;;;;4.67;100.00;95382.34;10364372;28;20244;-76
2022/11/16 08:34:08;;;;;;;11.93;8.73;;;;;;;4.76;100.00;95383.19;10350605;28;20272;-75
2022/11/16 08:39:11;;;;;;;11.87;6.83;;;;;;;5.02;100.00;95380.56;10365156;28;20260;-76
2022/11/16 08:44:13;;;;;;;12.47;8.37;;;;;;;5.29;100.00;95387.34;10364493;28;20271;-76
2022/11/16 08:49:17;;;;;;;12.53;8.80;;;;;;;5.48;100.00;95388.88;10363467;28;20316;-75
2022/11/16 08:54:18;;;;;;;11.10;7.03;;;;;;;5.39;100.00;95389.00;10365671;28;20235;-75
2022/11/16 08:59:18;;;;;;;2.83;2.57;;;;;;;5.26;100.00;95379.88;10364807;28;20196;-74
2022/11/16 09:04:23;;;;;;;5.67;3.30;;;;;;;5.40;100.00;95390.63;10365068;28;20209;-76
2022/11/16 09:09:23;;;;;;;6.30;4.20;;;;;;;5.11;100.00;95387.41;10366523;28;20246;-75
2022/11/16 09:14:24;;;;;;;4.57;3.23;;;;;;;5.18;100.00;95387.63;10398034;28;20638;-75
2022/11/16 09:19:24;;;;;;;5.13;3.60;;;;;;;5.22;100.00;95377.75;10398097;28;20189;-75
2022/11/16 09:24:25;;;;;;;2.27;1.57;;;;;;;5.11;100.00;95371.84;10369804;28;20221;-75
2022/11/16 09:29:26;;;;;;;5.20;3.43;;;;;;;5.09;100.00;95373.00;10373431;28;20244;-75
2022/11/16 09:34:27;;;;;;;4.33;3.50;;;;;;;5.27;100.00;95380.69;10373374;28;20283;-75
2022/11/16 09:39:30;;;;;;;7.70;6.90;;;;;;;5.38;100.00;95362.22;10372194;28;20212;-75
2022/11/16 09:44:51;;;;;;;4.33;2.90;;;;;;;5.20;100.00;95369.31;10373259;28;20271;-75
2022/11/16 09:49:53;;;;;;;4.93;3.00;;;;;;;5.20;100.00;95364.13;10371118;28;20585;-74
2022/11/16 09:54:54;;;;;;;4.27;3.70;;;;;;;5.26;100.00;95350.50;10372314;28;20196;-75
2022/11/16 09:59:58;;;;;;;5.93;3.57;;;;;;;5.54;100.00;95348.47;10371082;28;20193;-75
2022/11/16 10:05:12;;;;;;;4.97;3.83;;;;;;;5.74;100.00;95354.19;10370154;28;20702;-76
2022/11/16 10:10:19;;;;;;;6.50;3.67;;;;;;;5.74;100.00;95336.00;10403964;28;20272;-76
2022/11/16 10:15:32;;;;;;;4.20;3.53;;;;;;;6.01;100.00;95319.31;10354040;28;20184;-75
2022/11/16 10:20:50;;;;;;;6.53;4.70;;;;;;;6.10;100.00;95314.94;10372018;28;20280;-76
2022/11/16 10:25:57;;;;;;;5.47;4.20;;;;;;;6.28;100.00;95304.38;10369694;28;20244;-75
2022/11/16 10:31:16;;;;;;;5.63;4.63;;;;;;;6.34;100.00;95303.69;10370266;28;20260;-75
2022/11/16 10:36:18;;;;;;;6.10;4.73;;;;;;;6.36;100.00;95288.72;10369991;28;20252;-75
2022/11/16 10:41:22;;;;;;;6.37;4.87;;;;;;;6.49;100.00;95292.59;10369696;28;20192;-75
2022/11/16 10:46:44;;;;;;;10.67;5.20;;;;;;;6.63;100.00;95289.34;10385798;28;20591;-75
2022/11/16 10:51:45;;;;;;;7.60;4.87;;;;;;;6.68;100.00;95281.81;10368901;28;20189;-75
2022/11/16 10:56:51;;;;;;;6.33;4.47;;;;;;;6.59;100.00;95290.63;10370083;28;20650;-76
2022/11/16 11:01:52;;;;;;;7.00;4.80;;;;;;;6.88;100.00;95291.84;10368859;28;20563;-76
2022/11/16 11:07:00;;;;;;;6.13;4.20;;;;;;;6.85;100.00;95281.78;10368982;28;20232;-75
2022/11/16 11:17:28;;;;;;;5.80;4.20;;;;;;;7.00;100.00;95274.88;10369308;28;20281;-75
2022/11/16 11:22:34;;;;;;;7.83;5.20;;;;;;;7.19;100.00;95281.44;10368802;28;20243;-75
2022/11/16 11:27:35;;;;;;;6.77;4.70;;;;;;;7.01;100.00;95270.47;10367337;28;20248;-75
2022/11/16 11:32:38;;;;;;;5.63;4.27;;;;;;;6.91;100.00;95270.69;10367678;28;20216;-75
2022/11/16 11:37:39;;;;;;;7.47;4.70;;;;;;;6.86;100.00;95273.81;10366904;28;20213;-75
2022/11/16 11:42:42;;;;;;;7.10;5.10;;;;;;;6.57;100.00;95275.19;10367456;28;20201;-75
2022/11/16 11:47:49;;;;;;;8.07;5.73;;;;;;;5.94;100.00;95305.34;10350169;28;20707;-75
2022/11/16 11:52:58;;;;;;;9.13;6.00;;;;;;;5.98;100.00;95313.63;10366935;28;20669;-75
2022/11/16 11:58:00;;;;;;;9.80;5.90;;;;;;;5.88;100.00;95296.38;10366870;28;20247;-75
2022/11/16 12:03:24;;;;;;;10.33;6.77;;;;;;;5.75;100.00;95303.03;10367940;28;20247;-74
2022/11/16 12:09:18;;;;;;;8.60;6.17;;;;;;;5.82;100.00;95289.25;10350244;28;20216;-74
2022/11/16 12:14:22;;;;;;;9.87;7.40;;;;;;;5.85;100.00;95283.72;10353172;28;20193;-74
2022/11/16 12:19:33;;;;;;;9.87;7.43;;;;;;;5.90;100.00;95288.44;10365998;28;20208;-74
2022/11/16 12:24:46;;;;;;;70.63;26.37;;;;;;;6.07;100.00;95290.06;10367523;28;20229;-74
2022/11/16 12:29:59;;;;;;;72.27;41.37;;;;;;;6.29;100.00;95287.75;10366109;28;20244;-75
2022/11/16 12:35:13;;;;;;;26.73;16.20;;;;;;;6.49;100.00;95284.81;10366951;28;20239;-75
2022/11/16 12:40:35;;;;;;;9.40;6.37;;;;;;;6.68;100.00;95283.63;10366157;28;20275;-75
2022/11/16 12:46:10;;;;;;;14.73;10.47;;;;;;;6.74;100.00;95282.97;10366937;28;20220;-75
2022/11/16 12:51:26;;;;;;;9.53;6.47;;;;;;;6.56;100.00;95281.38;10366657;28;20676;-75
2022/11/16 12:57:03;;;;;;;8.60;6.43;;;;;;;6.59;100.00;95290.63;10366090;28;20188;-75
2022/11/16 13:02:11;;;;;;;9.07;7.17;;;;;;;6.48;100.00;95289.22;10374793;28;20200;-75
2022/11/16 13:07:18;;;;;;;12.27;6.77;;;;;;;6.50;100.00;95294.25;10372505;28;20221;-75
2022/11/16 13:12:22;;;;;;;11.53;7.93;;;;;;;6.60;100.00;95298.28;10374386;28;20212;-76
2022/11/16 13:17:40;;;;;;;10.83;7.73;;;;;;;6.70;100.00;95300.69;10371030;28;20231;-75
2022/11/16 13:22:45;;;;;;;9.37;6.73;;;;;;;6.64;100.00;95288.34;10371030;28;20598;-76
2022/11/16 13:27:56;;;;;;;9.00;6.93;;;;;;;6.66;100.00;95289.00;10371027;28;20273;-75
2022/11/16 13:33:21;;;;;;;9.90;7.30;;;;;;;6.83;100.00;95288.94;10371369;28;20201;-76
2022/11/16 13:38:51;;;;;;;17.93;10.77;;;;;;;6.86;100.00;95297.22;10388564;28;20216;-76
2022/11/16 13:43:51;;;;;;;11.47;8.37;;;;;;;6.88;100.00;95291.84;10363027;28;20230;-77
2022/11/16 13:48:52;;;;;;;26.23;17.37;;;;;;;6.31;100.00;95300.59;10371171;28;20189;-78
2022/11/16 13:53:53;;;;;;;24.27;15.13;;;;;;;6.03;100.00;95299.19;10384039;28;20189;-77
2022/11/16 13:58:57;;;;;;;25.07;14.97;;;;;;;6.06;100.00;95303.22;10371190;28;20498;-76
2022/11/16 14:04:42;;;;;;;13.50;9.77;;;;;;;6.18;100.00;95303.72;10370679;28;20690;-76
2022/11/16 14:09:47;;;;;;;13.80;8.83;;;;;;;6.31;100.00;95285.81;10340677;28;20208;-76
2022/11/16 14:15:12;;;;;;;15.47;7.83;;;;;;;6.36;100.00;95288.72;10371548;28;20244;-76
2022/11/16 14:20:12;;;;;;;10.50;7.17;;;;;;;6.43;100.00;95281.06;10372040;28;20228;-77
2022/11/16 14:25:32;;;;;;;10.17;8.07;;;;;;;6.33;100.00;95278.66;10369586;28;20321;-76
2022/11/16 14:30:45;;;;;;;12.03;8.47;;;;;;;6.16;100.00;95282.28;10369273;28;20229;-77
2022/11/16 14:35:50;;;;;;;20.33;13.00;;;;;;;6.07;100.00;95289.25;10369434;28;20654;-76
2022/11/16 14:40:51;;;;;;;17.17;12.50;;;;;;;5.92;100.00;95283.88;10369401;28;20193;-77
2022/11/16 14:45:54;;;;;;;16.20;14.37;;;;;;;5.76;100.00;95289.88;10368200;28;20311;-76
2022/11/16 14:51:05;;;;;;;18.27;13.97;;;;;;;5.64;100.00;95286.78;10400619;28;20185;-76
2022/11/16 14:56:11;;;;;;;14.67;10.13;;;;;;;5.63;100.00;95276.56;10368207;28;20193;-75
2022/11/16 15:01:13;;;;;;;18.77;9.83;;;;;;;5.54;100.00;95288.72;10369243;28;20204;-75
2022/11/16 15:06:14;;;;;;;13.10;9.27;;;;;;;5.45;100.00;95287.06;10366898;28;20217;-75
2022/11/16 15:11:26;;;;;;;25.77;16.43;;;;;;;5.47;100.00;95288.56;10370035;28;20681;-76
2022/11/16 15:16:26;;;;;;;18.77;15.83;;;;;;;5.42;100.00;95282.22;10392991;28;20193;-75
2022/11/16 15:21:27;;;;;;;20.20;14.87;;;;;;;5.50;100.00;95277.03;10367391;28;20189;-76
2022/11/16 15:26:28;;;;;;;18.00;12.20;;;;;;;5.53;100.00;95277.53;10367440;28;20220;-76
2022/11/16 15:31:28;;;;;;;17.50;10.97;;;;;;;5.58;100.00;95274.44;10366794;28;20586;-77
2022/11/16 15:36:38;;;;;;;17.90;13.63;;;;;;;5.52;100.00;95280.28;10334447;28;20209;-80
2022/11/16 15:41:38;;;;;;;18.53;11.93;;;;;;;5.57;100.00;95277.19;10368275;28;20190;-80
2022/11/16 15:46:39;;;;;;;16.13;12.43;;;;;;;5.41;100.00;95278.00;10361378;28;20217;-81
2022/11/16 15:51:42;;;;;;;18.70;12.00;;;;;;;5.32;100.00;95277.97;10326601;28;20285;-80
2022/11/16 15:56:42;;;;;;;17.20;11.40;;;;;;;5.25;100.00;95286.56;10342222;28;20550;-81
2022/11/16 16:01:46;;;;;;;20.47;13.30;;;;;;;5.28;100.00;95286.25;10326438;28;20182;-81
2022/11/16 16:06:51;;;;;;;16.93;10.93;;;;;;;5.23;100.00;95286.72;10309709;28;20643;-79
2022/11/16 16:11:53;;;;;;;16.63;10.33;;;;;;;5.17;100.00;95290.75;10325405;28;20197;-80
2022/11/16 16:16:58;;;;;;;16.07;10.70;;;;;;;5.13;100.00;95292.06;10356359;28;20235;-76
2022/11/16 16:21:59;;;;;;;19.97;13.77;;;;;;;5.33;100.00;95292.59;10366950;28;20185;-76
2022/11/16 16:26:59;;;;;;;18.67;11.80;;;;;;;5.25;100.00;95292.56;10365036;28;20709;-75
2022/11/16 16:31:59;;;;;;;27.07;19.73;;;;;;;5.11;100.00;95295.75;10369165;28;20225;-75
2022/11/16 16:37:00;;;;;;;42.13;25.10;;;;;;;5.01;100.00;95293.31;10372907;28;20578;-76
2022/11/16 16:42:01;;;;;;;35.83;21.73;;;;;;;4.96;100.00;95295.56;10374124;28;20223;-76
2022/11/16 16:47:01;;;;;;;63.73;32.63;;;;;;;5.00;100.00;95289.88;10373582;28;20266;-76
2022/11/16 16:52:03;;;;;;;64.73;36.17;;;;;;;4.99;100.00;95288.28;10373348;28;20193;-75
2022/11/16 16:57:03;;;;;;;19.33;14.07;;;;;;;5.10;100.00;95288.94;10374337;28;20289;-75
2022/11/16 17:02:04;;;;;;;22.53;14.23;;;;;;;5.09;100.00;95287.34;10373356;28;20219;-76
2022/11/16 17:07:04;;;;;;;30.17;20.50;;;;;;;5.03;100.00;95290.56;10372361;28;20554;-75
2022/11/16 17:12:05;;;;;;;19.43;11.53;;;;;;;5.01;100.00;95295.91;10373844;28;20193;-76
2022/11/16 17:17:05;;;;;;;20.83;13.07;;;;;;;4.98;100.00;95299.63;10372531;28;20560;-76
2022/11/16 17:22:05;;;;;;;19.67;13.20;;;;;;;4.97;100.00;95310.97;10389105;28;20197;-76
2022/11/16 17:27:06;;;;;;;22.57;13.17;;;;;;;4.95;100.00;95301.72;10371317;28;20225;-76
2022/11/16 17:32:06;;;;;;;20.33;13.10;;;;;;;4.97;100.00;95299.78;10373457;28;20727;-76
2022/11/16 17:37:07;;;;;;;23.23;15.00;;;;;;;4.96;100.00;95305.94;10371943;28;20228;-77
2022/11/16 17:42:07;;;;;;;25.43;16.37;;;;;;;5.00;100.00;95308.06;10371551;28;20240;-77
2022/11/16 17:47:09;;;;;;;20.60;13.77;;;;;;;4.98;100.00;95309.19;10371108;28;20249;-75
2022/11/16 17:52:10;;;;;;;23.33;15.07;;;;;;;4.95;100.00;95309.50;10371895;28;20354;-76
2022/11/16 17:57:10;;;;;;;26.80;17.60;;;;;;;4.93;100.00;95303.66;10371988;28;20193;-75
2022/11/16 18:02:11;;;;;;;28.80;21.83;;;;;;;4.92;100.00;95308.03;10371267;28;20552;-76
2022/11/16 18:07:11;;;;;;;18.07;12.43;;;;;;;4.98;100.00;95302.22;10370964;28;20686;-76
2022/11/16 18:12:12;;;;;;;16.43;11.73;;;;;;;4.95;100.00;95310.31;10371503;28;20189;-76
2022/11/16 18:17:12;;;;;;;20.00;11.87;;;;;;;4.93;100.00;95314.03;10369645;28;20564;-75
2022/11/16 18:22:12;;;;;;;18.67;11.63;;;;;;;4.92;100.00;95315.81;10370869;28;20509;-76
2022/11/16 18:27:14;;;;;;;20.63;14.07;;;;;;;4.88;100.00;95311.09;10370320;28;20209;-76
2022/11/16 18:32:14;;;;;;;23.73;15.07;;;;;;;4.83;100.00;95308.97;10370690;28;20233;-76
2022/11/16 18:37:15;;;;;;;30.30;17.37;;;;;;;4.84;100.00;95308.00;10368862;28;20213;-76
2022/11/16 18:42:15;;;;;;;25.33;16.30;;;;;;;4.85;100.00;95308.81;10369172;28;20300;-76
2022/11/16 18:47:15;;;;;;;35.20;21.00;;;;;;;4.86;100.00;95315.63;10367316;28;20221;-76
2022/11/16 18:52:16;;;;;;;25.43;16.50;;;;;;;4.81;100.00;95314.31;10368120;28;20200;-76
2022/11/16 18:57:16;;;;;;;22.87;14.20;;;;;;;4.76;100.00;95305.38;10368281;28;20186;-76
2022/11/16 19:02:16;;;;;;;18.23;11.43;;;;;;;4.73;100.00;95311.69;10368167;28;20196;-76
2022/11/16 19:07:17;;;;;;;23.37;13.40;;;;;;;4.70;100.00;95306.81;10367491;28;20217;-76
2022/11/16 19:12:17;;;;;;;16.90;10.73;;;;;;;4.67;100.00;95312.31;10367944;28;20231;-76
2022/11/16 19:17:19;;;;;;;15.30;9.47;;;;;;;4.66;100.00;95310.69;10368801;28;20193;-76
2022/11/16 19:22:19;;;;;;;12.67;8.10;;;;;;;4.63;100.00;95311.00;10369729;28;20189;-76
2022/11/16 19:27:20;;;;;;;13.23;8.60;;;;;;;4.60;100.00;95308.69;10369698;28;20689;-76
2022/11/16 19:32:20;;;;;;;13.40;9.53;;;;;;;4.59;100.00;95309.66;10368350;28;20225;-76
2022/11/16 19:37:20;;;;;;;11.20;7.47;;;;;;;4.54;100.00;95312.72;10369012;28;20209;-76
2022/11/16 19:42:21;;;;;;;15.33;7.43;;;;;;;4.55;100.00;95311.75;10369495;28;20561;-76
2022/11/16 19:47:25;;;;;;;12.37;7.50;;;;;;;4.62;100.00;95312.78;10368467;28;20217;-76
2022/11/16 19:52:25;;;;;;;10.27;7.30;;;;;;;4.54;100.00;95310.13;10368879;28;20209;-76
2022/11/16 19:57:26;;;;;;;13.27;8.37;;;;;;;4.49;100.00;95317.56;10367434;28;20202;-75
2022/11/16 20:02:26;;;;;;;12.60;9.00;;;;;;;4.45;100.00;95305.84;10366223;28;20189;-76
2022/11/16 20:07:26;;;;;;;18.43;12.10;;;;;;;4.46;100.00;95310.09;10365198;28;20250;-75
2022/11/16 20:12:27;;;;;;;22.00;13.67;;;;;;;4.40;100.00;95306.31;10367222;28;20328;-75
2022/11/16 20:17:27;;;;;;;19.40;13.23;;;;;;;4.41;100.00;95304.53;10365669;28;20185;-76
2022/11/16 20:22:27;;;;;;;18.07;11.70;;;;;;;4.40;100.00;95295.94;10366948;28;20197;-75
2022/11/16 20:27:28;;;;;;;20.57;11.40;;;;;;;4.36;100.00;95297.22;10367632;28;20224;-76
2022/11/16 20:32:28;;;;;;;15.93;9.40;;;;;;;4.32;100.00;95290.72;10367508;28;20197;-76
2022/11/16 20:37:29;;;;;;;20.37;10.73;;;;;;;4.27;100.00;95291.19;10367655;28;20212;-76
2022/11/16 20:42:29;;;;;;;15.70;9.33;;;;;;;4.31;100.00;95302.03;10368070;28;20231;-76
2022/11/16 20:47:29;;;;;;;16.97;9.90;;;;;;;4.23;100.00;95308.00;10366755;28;20839;-76
2022/11/16 20:52:30;;;;;;;20.63;11.87;;;;;;;4.22;100.00;95306.34;10365704;28;20200;-76
2022/11/16 20:57:30;;;;;;;20.87;11.40;;;;;;;4.21;100.00;95309.09;10366297;28;20190;-76
2022/11/16 21:02:30;;;;;;;18.17;11.63;;;;;;;4.16;100.00;95294.00;10367253;28;20601;-76
2022/11/16 21:07:31;;;;;;;18.73;11.63;;;;;;;4.19;100.00;95303.25;10365572;28;20235;-76
2022/11/16 21:17:50;;;;;;;23.03;13.40;;;;;;;4.11;100.00;95301.44;10366512;28;20272;-75
2022/11/16 21:22:51;;;;;;;25.50;12.17;;;;;;;4.08;100.00;95307.72;10374116;28;20201;-75
2022/11/16 21:27:51;;;;;;;24.00;12.47;;;;;;;4.13;100.00;95309.06;10357439;28;20592;-75
2022/11/16 21:32:51;;;;;;;19.37;10.77;;;;;;;4.09;100.00;95314.53;10407054;28;20185;-75
2022/11/16 21:37:52;;;;;;;19.20;10.67;;;;;;;4.03;100.00;95303.97;10374908;28;20209;-75
2022/11/16 21:42:52;;;;;;;20.67;11.80;;;;;;;4.04;100.00;95309.00;10375405;28;20200;-75
2022/11/16 21:47:52;;;;;;;17.90;10.50;;;;;;;4.00;100.00;95312.06;10374300;28;20275;-75
2022/11/16 21:52:53;;;;;;;15.80;10.90;;;;;;;4.00;100.00;95305.09;10373335;28;20196;-75
2022/11/16 21:57:54;;;;;;;16.60;11.37;;;;;;;3.97;100.00;95312.34;10374350;28;20186;-75
2022/11/16 22:02:55;;;;;;;11.73;8.47;;;;;;;4.01;100.00;95317.09;10373639;28;20189;-74
2022/11/16 22:07:55;;;;;;;12.43;9.00;;;;;;;3.91;100.00;95321.53;10373717;28;20578;-76
2022/11/16 22:12:55;;;;;;;12.73;8.27;;;;;;;3.89;100.00;95313.91;10368043;28;20193;-76
2022/11/16 22:17:56;;;;;;;8.77;6.33;;;;;;;3.81;100.00;95311.22;10373981;28;20658;-76
2022/11/16 22:22:56;;;;;;;8.70;6.27;;;;;;;3.82;100.00;95317.25;10373023;28;20197;-76
2022/11/16 22:27:56;;;;;;;10.33;6.40;;;;;;;3.80;100.00;95317.41;10372929;28;20225;-76
2022/11/16 22:32:57;;;;;;;7.17;5.83;;;;;;;3.75;100.00;95319.59;10372517;28;20193;-76
2022/11/16 22:37:58;;;;;;;10.83;6.73;;;;;;;3.68;100.00;95316.78;10372564;28;20629;-76
2022/11/16 22:42:58;;;;;;;8.53;6.77;;;;;;;3.59;100.00;95316.88;10372586;28;20186;-76
2022/11/16 22:47:59;;;;;;;10.90;7.63;;;;;;;3.66;100.00;95310.13;10371874;28;20221;-76
2022/11/16 22:52:59;;;;;;;10.77;8.07;;;;;;;3.61;100.00;95314.94;10371277;28;20658;-76
2022/11/16 22:57:59;;;;;;;9.80;7.40;;;;;;;3.59;100.00;95311.69;10371418;28;20189;-76
2022/11/16 23:03:00;;;;;;;8.30;6.50;;;;;;;3.64;100.00;95304.28;10371700;28;20197;-76
2022/11/16 23:08:01;;;;;;;7.50;6.00;;;;;;;3.61;100.00;95299.41;10371431;28;20235;-77
2022/11/16 23:18:21;;;;;;;8.37;6.60;;;;;;;3.50;100.00;95293.47;10371374;28;20200;-76
2022/11/16 23:28:40;;;;;;;8.03;6.33;;;;;;;3.48;100.00;95294.63;10370422;28;20232;-76
2022/11/16 23:33:43;;;;;;;8.97;6.90;;;;;;;3.41;100.00;95301.34;10369301;28;20193;-76
2022/11/16 23:38:43;;;;;;;9.83;6.70;;;;;;;3.41;100.00;95294.38;10370312;28;20213;-76
2022/11/16 23:43:59;;;;;;;8.10;6.83;;;;;;;3.43;100.00;95297.66;10369208;28;20619;-76
2022/11/16 23:48:59;;;;;;;9.53;7.30;;;;;;;3.42;100.00;95296.00;10369944;28;20702;-76
2022/11/16 23:54:00;;;;;;;7.30;6.13;;;;;;;3.43;100.00;95289.88;10368807;28;20188;-76
2022/11/16 23:59:00;;;;;;;8.90;6.00;;;;;;;3.41;100.00;95289.19;10369570;28;20975;-76
